Terminal Aerodrome Forecast
Issued by NWS Cleveland, OH

Home | Current Version | Previous Version | Text Only | Print | Product List | Glossary Off
Versions: 1 2 3 4 5 6 7 8 9 10 11 12 13 14 15 16 17 18 19 20 21 22 23 24 25 26 27 28 29 30 31 32 33 34 35 36 37 38 39

000
FTUS41 KCLE 210200 AAD
TAFCLE
TAF AMD
KCLE 210253Z 2103/2206 24008KT 5SM BR SCT008 OVC025
      TEMPO 2103/2106 3SM -SHRA BR BKN006 OVC015
     FM210600 27008KT 6SM BR VCSH OVC015
     FM210800 30010KT 5SM -DZ BR BKN008 OVC015
     FM211500 32012G20KT 6SM BR VCSH OVC015=

USA.gov is the U.S. government's official web portal to all federal, state and local government web resources and services.